createdAt,value
2018-11-22T12:16:25.127Z,15.81
2018-11-22T12:17:26.896Z,15.83
2018-11-22T12:18:28.679Z,15.83
2018-11-22T12:19:30.517Z,15.82
2018-11-22T12:20:32.282Z,15.83
2018-11-22T12:21:34.289Z,15.84
2018-11-22T12:22:36.053Z,15.85
2018-11-22T12:23:37.808Z,15.86
2018-11-22T12:24:39.623Z,15.86
2018-11-22T12:25:41.477Z,15.85
2018-11-22T12:26:43.249Z,15.82
2018-11-22T12:27:46.193Z,15.81
2018-11-22T12:28:48.012Z,15.81
2018-11-22T12:29:49.821Z,15.83
2018-11-22T12:30:51.575Z,15.84
2018-11-22T12:31:53.699Z,15.83
2018-11-22T12:33:06.090Z,15.83
2018-11-22T12:34:13.308Z,15.86
2018-11-22T12:35:20.899Z,15.83
2018-11-22T12:36:25.978Z,15.82
2018-11-22T12:37:32.546Z,15.81
2018-11-22T12:38:35.106Z,15.84
2018-11-22T12:39:36.884Z,15.83
2018-11-22T12:40:38.656Z,15.82
2018-11-22T12:41:40.426Z,15.82
2018-11-22T12:42:42.227Z,15.81
2018-11-22T12:43:44.252Z,15.79
2018-11-22T12:44:46.024Z,15.79
2018-11-22T12:45:48.815Z,15.80
2018-11-22T12:46:49.653Z,15.83
2018-11-22T12:47:51.563Z,15.82
2018-11-22T12:48:53.320Z,15.84
2018-11-22T12:49:55.223Z,15.84
2018-11-22T12:50:57.029Z,15.81
2018-11-22T12:51:58.896Z,15.82
2018-11-22T12:53:00.712Z,15.81
2018-11-22T12:54:02.475Z,15.81
2018-11-22T12:55:04.262Z,15.82
2018-11-22T12:56:06.064Z,15.83
2018-11-22T12:57:07.819Z,15.83
2018-11-22T12:58:09.578Z,15.83
2018-11-22T12:59:11.375Z,15.86
2018-11-22T13:00:13.538Z,15.83
2018-11-22T13:01:15.420Z,15.83
2018-11-22T13:02:18.356Z,15.84
2018-11-22T13:03:19.134Z,15.83
2018-11-22T13:04:20.914Z,15.84
2018-11-22T13:05:22.688Z,15.82
2018-11-22T13:06:24.540Z,15.80
2018-11-22T13:07:26.398Z,15.84
2018-11-22T13:08:28.168Z,15.83
2018-11-22T13:09:29.924Z,15.82
2018-11-22T13:10:31.687Z,15.83
2018-11-22T13:11:33.719Z,15.83
2018-11-22T13:12:35.542Z,15.86
2018-11-22T13:13:37.308Z,15.84
2018-11-22T13:14:39.108Z,15.83
2018-11-22T13:15:40.883Z,15.82
2018-11-22T13:16:42.701Z,15.85
2018-11-22T13:17:44.502Z,15.85
2018-11-22T13:18:46.292Z,15.83
2018-11-22T13:19:48.064Z,15.82
2018-11-22T13:20:49.828Z,15.84
2018-11-22T13:21:51.644Z,15.84
2018-11-22T13:22:53.577Z,15.83
2018-11-22T13:23:55.418Z,15.81
2018-11-22T13:24:57.215Z,15.82
2018-11-22T13:25:58.977Z,15.83
2018-11-22T13:27:00.766Z,15.83
2018-11-22T13:28:02.533Z,15.82
2018-11-22T13:29:04.310Z,15.82
2018-11-22T13:30:06.212Z,15.83
2018-11-22T13:31:08.024Z,15.83
2018-11-22T13:32:09.823Z,15.80
2018-11-22T13:33:12.034Z,15.82
2018-11-22T13:34:13.815Z,15.83
2018-11-22T13:35:16.149Z,15.83
2018-11-22T13:36:17.922Z,15.83
2018-11-22T13:37:19.810Z,15.83
2018-11-22T13:38:21.565Z,15.85
2018-11-22T13:39:23.335Z,15.83
2018-11-22T13:40:25.110Z,15.85
2018-11-22T13:41:26.887Z,15.84
2018-11-22T13:42:28.714Z,15.82
2018-11-22T13:43:30.673Z,15.82
2018-11-22T13:44:33.475Z,15.83
2018-11-22T13:45:35.283Z,15.82
2018-11-22T13:46:37.104Z,15.80
2018-11-22T13:47:40.325Z,15.83
2018-11-22T13:48:42.099Z,15.82
2018-11-22T13:49:43.887Z,15.82
2018-11-22T13:50:45.653Z,15.84
2018-11-22T13:51:47.445Z,15.81
2018-11-22T13:52:50.799Z,15.80
2018-11-22T13:53:52.774Z,15.79
2018-11-22T13:54:55.363Z,15.79
2018-11-22T13:55:57.169Z,15.77
2018-11-22T13:56:58.987Z,15.81
2018-11-22T13:58:00.837Z,15.84
2018-11-22T13:59:02.664Z,15.83
2018-11-22T14:00:04.441Z,15.79
2018-11-22T14:01:06.262Z,15.77
2018-11-22T14:02:08.023Z,15.79
2018-11-22T14:03:10.013Z,15.76
2018-11-22T14:04:11.798Z,15.77
2018-11-22T14:05:13.574Z,15.80
2018-11-22T14:06:15.430Z,15.83
2018-11-22T14:07:17.342Z,15.83
2018-11-22T14:08:19.192Z,15.81
2018-11-22T14:09:20.979Z,15.81
2018-11-22T14:10:22.933Z,15.80
2018-11-22T14:11:24.710Z,15.79
2018-11-22T14:12:26.475Z,15.81
2018-11-22T14:13:28.283Z,15.78
2018-11-22T14:14:30.088Z,15.81
2018-11-22T14:15:32.162Z,15.81
2018-11-22T14:16:33.943Z,15.76
2018-11-22T14:17:35.712Z,15.79
2018-11-22T14:18:37.524Z,15.79
2018-11-22T14:19:39.289Z,15.80
2018-11-22T14:20:41.046Z,15.78
2018-11-22T14:21:42.818Z,15.79
2018-11-22T14:22:51.132Z,15.80
2018-11-22T14:23:52.925Z,15.76
2018-11-22T14:24:54.803Z,15.79
2018-11-22T14:25:56.577Z,15.80
2018-11-22T14:26:58.340Z,15.79
2018-11-22T14:28:00.387Z,15.76
2018-11-22T14:29:02.207Z,15.80
2018-11-22T14:30:04.264Z,15.82
2018-11-22T14:31:06.178Z,15.82
2018-11-22T14:32:07.958Z,15.84
2018-11-22T14:33:09.793Z,15.83
2018-11-22T14:34:11.788Z,15.84
2018-11-22T14:35:14.800Z,15.81
2018-11-22T14:36:16.583Z,15.80
2018-11-22T14:37:18.793Z,15.80
2018-11-22T14:38:20.662Z,15.79
2018-11-22T14:39:22.492Z,15.80
2018-11-22T14:40:25.738Z,15.82
2018-11-22T14:41:27.503Z,15.79
2018-11-22T14:42:29.326Z,15.78
2018-11-22T14:43:31.216Z,15.78
2018-11-22T14:44:33.055Z,15.75
2018-11-22T14:45:34.905Z,15.79
2018-11-22T14:46:36.829Z,15.79
2018-11-22T14:47:38.759Z,15.76
2018-11-22T14:48:40.521Z,15.74
2018-11-22T14:49:42.339Z,15.77
2018-11-22T14:50:44.120Z,15.80
2018-11-22T14:51:45.904Z,15.83
2018-11-22T14:52:47.702Z,15.84
2018-11-22T14:53:49.476Z,15.81
2018-11-22T14:54:51.290Z,15.81
2018-11-22T14:55:53.118Z,15.84
2018-11-22T14:56:54.906Z,15.84
2018-11-22T14:57:56.703Z,15.83
2018-11-22T14:58:58.481Z,15.82
2018-11-22T15:00:00.285Z,15.81
2018-11-22T15:01:02.229Z,15.81
2018-11-22T15:02:04.029Z,15.78
2018-11-22T15:03:05.817Z,15.79
2018-11-22T15:04:07.597Z,15.80
2018-11-22T15:05:10.221Z,15.81
2018-11-22T15:06:12.017Z,15.82
2018-11-22T15:07:13.830Z,15.93
2018-11-22T15:08:15.636Z,15.99
2018-11-22T15:09:17.399Z,16.00
2018-11-22T15:10:19.176Z,15.96
2018-11-22T15:11:21.371Z,15.99
2018-11-22T15:12:23.133Z,15.97
2018-11-22T15:13:24.931Z,15.97
2018-11-22T15:14:26.699Z,15.97
2018-11-22T15:15:30.131Z,15.95
2018-11-22T15:16:31.905Z,15.99
2018-11-22T15:17:33.927Z,15.95
2018-11-22T15:18:35.734Z,15.98
2018-11-22T15:19:37.530Z,15.97
2018-11-22T15:20:39.350Z,15.97
2018-11-22T15:21:41.142Z,15.95
2018-11-22T15:22:43.687Z,15.97
2018-11-22T15:23:46.422Z,15.95
2018-11-22T15:24:48.287Z,15.99
2018-11-22T15:25:50.168Z,16.00
2018-11-22T15:26:51.985Z,16.03
2018-11-22T15:27:53.788Z,15.99
2018-11-22T15:28:55.552Z,15.96
2018-11-22T15:29:57.360Z,15.95
2018-11-22T15:30:59.248Z,15.97
2018-11-22T15:32:01.109Z,15.94
2018-11-22T15:33:02.966Z,15.93
2018-11-22T15:34:04.736Z,15.95
2018-11-22T15:35:06.535Z,15.96
2018-11-22T15:36:08.335Z,15.99
2018-11-22T15:37:10.131Z,16.04
2018-11-22T15:38:11.924Z,16.04
2018-11-22T15:39:13.698Z,16.08
2018-11-22T15:40:16.686Z,16.06
2018-11-22T15:41:18.462Z,16.00
2018-11-22T15:42:20.257Z,16.01
2018-11-22T15:43:23.016Z,16.05
2018-11-22T15:44:24.788Z,16.10
2018-11-22T15:45:30.365Z,16.11
2018-11-22T15:46:29.309Z,16.11
2018-11-22T15:47:31.093Z,16.13
2018-11-22T15:48:33.085Z,16.14
2018-11-22T15:49:34.866Z,16.14
2018-11-22T15:50:36.695Z,16.11
2018-11-22T15:51:38.517Z,16.04
2018-11-22T15:52:40.572Z,16.01
2018-11-22T15:53:42.378Z,15.97
2018-11-22T15:54:44.301Z,15.99
2018-11-22T15:55:46.729Z,16.04
2018-11-22T15:56:48.627Z,16.07
2018-11-22T15:57:51.712Z,16.10
2018-11-22T15:58:53.505Z,16.07
2018-11-22T15:59:55.281Z,16.10
2018-11-22T16:00:57.154Z,16.09
2018-11-22T16:01:58.955Z,16.08
2018-11-22T16:03:01.160Z,16.02
2018-11-22T16:04:02.938Z,16.01
2018-11-22T16:05:04.715Z,16.02
2018-11-22T16:06:13.188Z,16.01
2018-11-22T16:07:15.060Z,16.02
2018-11-22T16:08:16.848Z,16.02
2018-11-22T16:09:18.658Z,16.03
2018-11-22T16:10:26.275Z,16.03
2018-11-22T16:11:23.762Z,16.03
2018-11-22T16:12:25.700Z,16.00
2018-11-22T16:13:27.526Z,16.00
2018-11-22T16:14:29.317Z,15.97
2018-11-22T16:15:31.259Z,15.96
2018-11-22T16:16:33.350Z,15.98
2018-11-22T16:17:35.142Z,15.98
2018-11-22T16:18:37.333Z,15.97
2018-11-22T16:19:39.128Z,15.97
2018-11-22T16:20:40.930Z,16.04
2018-11-22T16:21:42.712Z,16.07
2018-11-22T16:22:44.520Z,16.03
2018-11-22T16:23:46.457Z,16.04
2018-11-22T16:24:48.380Z,16.04
2018-11-22T16:25:50.181Z,16.02
2018-11-22T16:26:52.040Z,16.02
2018-11-22T16:27:53.981Z,16.00
2018-11-22T16:28:55.824Z,15.98
2018-11-22T16:29:57.583Z,15.99
2018-11-22T16:30:59.344Z,15.96
2018-11-22T16:32:01.253Z,15.94
2018-11-22T16:33:03.101Z,15.91
2018-11-22T16:34:04.890Z,15.91
2018-11-22T16:35:06.681Z,15.91
2018-11-22T16:36:08.448Z,15.93
2018-11-22T16:37:10.248Z,15.92
2018-11-22T16:38:12.077Z,15.92
2018-11-22T16:39:13.978Z,15.92
2018-11-22T16:40:17.093Z,15.92
2018-11-22T16:41:18.874Z,15.89
2018-11-22T16:42:20.716Z,15.86
2018-11-22T16:43:22.531Z,15.84
2018-11-22T16:44:24.359Z,15.84
2018-11-22T16:45:27.364Z,15.83
2018-11-22T16:46:29.154Z,15.82
2018-11-22T16:47:31.051Z,15.84
2018-11-22T16:48:32.858Z,15.84
2018-11-22T16:49:34.678Z,15.87
2018-11-22T16:50:37.455Z,15.86
2018-11-22T16:51:39.225Z,15.82
2018-11-22T16:52:41.526Z,15.86
2018-11-22T16:53:43.330Z,15.84
2018-11-22T16:54:45.103Z,15.85
2018-11-22T16:55:46.871Z,15.84
2018-11-22T16:56:48.739Z,15.84
2018-11-22T16:57:51.579Z,15.85
2018-11-22T16:58:53.364Z,15.87
2018-11-22T16:59:55.118Z,15.91
2018-11-22T17:00:56.913Z,15.93
2018-11-22T17:01:58.689Z,15.91
2018-11-22T17:03:01.936Z,15.86
2018-11-22T17:04:03.855Z,15.88
2018-11-22T17:05:05.656Z,15.87
2018-11-22T17:06:07.482Z,15.91
2018-11-22T17:07:09.277Z,15.89
2018-11-22T17:08:11.592Z,15.86
2018-11-22T17:09:13.474Z,15.86
2018-11-22T17:10:16.768Z,15.81
2018-11-22T17:11:18.554Z,15.81
2018-11-22T17:12:20.358Z,15.82
2018-11-22T17:13:22.134Z,15.80
2018-11-22T17:14:23.960Z,15.78
2018-11-22T17:15:28.181Z,15.77
2018-11-22T17:16:29.988Z,15.75
2018-11-22T17:17:31.753Z,15.76
2018-11-22T17:18:33.518Z,15.75
2018-11-22T17:19:35.318Z,15.73
2018-11-22T17:20:37.108Z,15.74
2018-11-22T17:21:39.047Z,15.74
2018-11-22T17:22:41.475Z,15.74
2018-11-22T17:23:43.270Z,15.73
2018-11-22T17:24:45.151Z,15.72
2018-11-22T17:25:46.928Z,15.76
2018-11-22T17:26:48.724Z,15.73
2018-11-22T17:27:51.924Z,15.70
2018-11-22T17:28:54.143Z,15.69
2018-11-22T17:29:56.079Z,15.69
2018-11-22T17:30:57.861Z,15.68
2018-11-22T17:31:59.738Z,15.68
2018-11-22T17:33:01.526Z,15.69
2018-11-22T17:34:03.296Z,15.67
2018-11-22T17:35:06.004Z,15.69
2018-11-22T17:36:08.202Z,15.70
2018-11-22T17:37:09.974Z,15.69
2018-11-22T17:38:12.615Z,15.72
2018-11-22T17:39:15.438Z,15.69
2018-11-22T17:40:20.737Z,15.69
2018-11-22T17:41:22.514Z,15.73
2018-11-22T17:42:24.437Z,15.69
2018-11-22T17:43:26.243Z,15.68
2018-11-22T17:44:28.014Z,15.68
2018-11-22T17:45:37.950Z,15.68
2018-11-22T17:46:39.719Z,15.68
2018-11-22T17:47:41.705Z,15.68
2018-11-22T17:48:43.481Z,15.68
2018-11-22T17:49:45.241Z,15.68
2018-11-22T17:50:47.902Z,15.67
2018-11-22T17:51:49.694Z,15.66
2018-11-22T17:52:51.560Z,15.66
2018-11-22T17:53:53.341Z,15.67
2018-11-22T17:54:56.484Z,15.66
2018-11-22T17:55:58.339Z,15.69
2018-11-22T17:57:00.119Z,15.67
2018-11-22T17:58:01.887Z,15.67
2018-11-22T17:59:03.688Z,15.66
2018-11-22T18:00:06.330Z,15.67
2018-11-22T18:01:14.413Z,15.69
2018-11-22T18:02:10.185Z,15.67
2018-11-22T18:03:12.701Z,15.66
2018-11-22T18:04:14.497Z,15.66
2018-11-22T18:05:16.289Z,15.66
2018-11-22T18:06:18.113Z,15.65
2018-11-22T18:07:20.759Z,15.65
2018-11-22T18:08:22.743Z,15.65
2018-11-22T18:09:24.554Z,15.66
2018-11-22T18:10:28.399Z,15.64
2018-11-22T18:11:30.200Z,15.66
2018-11-22T18:12:32.017Z,15.66
2018-11-22T18:13:33.824Z,15.66
2018-11-22T18:14:35.877Z,15.65
2018-11-22T18:15:44.889Z,15.65
2018-11-22T18:16:46.703Z,15.66
2018-11-22T18:17:48.968Z,15.67
2018-11-22T18:18:50.957Z,15.68
2018-11-22T18:19:52.774Z,15.64
2018-11-22T18:20:54.579Z,15.64
2018-11-22T18:21:56.397Z,15.64
2018-11-22T18:22:59.135Z,15.64
2018-11-22T18:24:00.947Z,15.64
2018-11-22T18:25:02.722Z,15.64
2018-11-22T18:26:04.517Z,15.63
2018-11-22T18:27:06.323Z,15.62
2018-11-22T18:28:08.116Z,15.62
2018-11-22T18:29:09.945Z,15.64
2018-11-22T18:30:13.425Z,15.65
2018-11-22T18:31:15.420Z,15.63
2018-11-22T18:32:17.272Z,15.62
2018-11-22T18:33:19.076Z,15.65
2018-11-22T18:34:22.857Z,15.65
2018-11-22T18:35:24.639Z,15.64
2018-11-22T18:36:26.455Z,15.62
2018-11-22T18:37:28.274Z,15.63
2018-11-22T18:38:32.007Z,15.63
2018-11-22T18:39:33.811Z,15.62
2018-11-22T18:40:37.148Z,15.60
2018-11-22T18:41:38.941Z,15.60
2018-11-22T18:42:40.789Z,15.60
2018-11-22T18:43:42.580Z,15.61
2018-11-22T18:44:44.357Z,15.63
2018-11-22T18:45:49.636Z,15.60
2018-11-22T18:46:51.414Z,15.60
2018-11-22T18:47:53.331Z,15.59
2018-11-22T18:48:55.115Z,15.59
2018-11-22T18:49:57.649Z,15.59
2018-11-22T18:50:59.456Z,15.62
2018-11-22T18:52:01.260Z,15.62
2018-11-22T18:53:04.245Z,15.62
2018-11-22T18:54:06.016Z,15.59
2018-11-22T18:55:08.366Z,15.62
2018-11-22T18:56:10.137Z,15.60
2018-11-22T18:57:11.917Z,15.59
2018-11-22T18:58:13.732Z,15.60
2018-11-22T18:59:15.507Z,15.60
2018-11-22T19:00:19.996Z,15.60
2018-11-22T19:01:21.776Z,15.58
2018-11-22T19:02:23.602Z,15.60
2018-11-22T19:03:25.413Z,15.59
2018-11-22T19:04:27.305Z,15.59
2018-11-22T19:05:29.528Z,15.59
2018-11-22T19:06:31.306Z,15.58
2018-11-22T19:07:33.637Z,15.58
2018-11-22T19:08:35.444Z,15.58
2018-11-22T19:09:37.222Z,15.57
2018-11-22T19:10:40.206Z,15.58
2018-11-22T19:11:42.050Z,15.57
2018-11-22T19:12:44.840Z,15.58
2018-11-22T19:13:46.633Z,15.59
2018-11-22T19:14:48.448Z,15.59
2018-11-22T19:15:50.233Z,15.58
2018-11-22T19:16:52.023Z,15.59
2018-11-22T19:17:54.108Z,15.59
2018-11-22T19:18:56.581Z,15.58
2018-11-22T19:19:58.363Z,15.57
2018-11-22T19:21:00.145Z,15.58
2018-11-22T19:22:01.937Z,15.58
2018-11-22T19:23:05.629Z,15.58
2018-11-22T19:24:07.706Z,15.57
2018-11-22T19:25:09.925Z,15.57
2018-11-22T19:26:11.718Z,15.57
2018-11-22T19:27:13.519Z,15.58
2018-11-22T19:28:15.305Z,15.59
2018-11-22T19:29:17.108Z,15.58
2018-11-22T19:30:22.324Z,15.60
2018-11-22T19:31:24.129Z,15.57
2018-11-22T19:32:25.885Z,15.59
2018-11-22T19:33:27.665Z,15.58
2018-11-22T19:34:29.525Z,15.58
2018-11-22T19:35:33.718Z,15.57
2018-11-22T19:36:35.489Z,15.57
2018-11-22T19:37:37.522Z,15.58
2018-11-22T19:38:39.297Z,15.57
2018-11-22T19:39:41.198Z,15.57
2018-11-22T19:40:43.501Z,15.57
2018-11-22T19:41:45.327Z,15.57
2018-11-22T19:42:48.615Z,15.58
2018-11-22T19:43:50.430Z,15.57
2018-11-22T19:44:52.214Z,15.59
2018-11-22T19:45:53.995Z,15.57
2018-11-22T19:46:55.883Z,15.57
2018-11-22T19:47:57.666Z,15.55
2018-11-22T19:48:59.434Z,15.56
2018-11-22T19:50:01.311Z,15.56
2018-11-22T19:51:05.725Z,15.54
2018-11-22T19:52:05.142Z,15.54
2018-11-22T19:53:08.602Z,15.55
2018-11-22T19:54:10.370Z,15.55
2018-11-22T19:55:13.793Z,15.56
2018-11-22T19:56:15.594Z,15.57
2018-11-22T19:57:18.551Z,15.56
2018-11-22T19:58:20.425Z,15.57
2018-11-22T19:59:22.206Z,15.58
2018-11-22T20:00:24.809Z,15.56
2018-11-22T20:01:26.632Z,15.55
2018-11-22T20:02:28.483Z,15.55
2018-11-22T20:03:31.722Z,15.53
2018-11-22T20:04:33.510Z,15.54
2018-11-22T20:05:36.733Z,15.53
2018-11-22T20:06:39.111Z,15.54
2018-11-22T20:07:41.657Z,15.56
2018-11-22T20:08:43.642Z,15.53
2018-11-22T20:09:45.421Z,15.54
2018-11-22T20:10:48.050Z,15.54
2018-11-22T20:11:49.844Z,15.53
2018-11-22T20:12:51.647Z,15.52
2018-11-22T20:13:53.431Z,15.53
2018-11-22T20:14:55.222Z,15.53
2018-11-22T20:15:57.007Z,15.52
2018-11-22T20:16:58.878Z,15.53
2018-11-22T20:18:01.463Z,15.54
2018-11-22T20:19:03.526Z,15.55
2018-11-22T20:20:05.350Z,15.54
2018-11-22T20:21:08.713Z,15.54
2018-11-22T20:22:10.681Z,15.53
2018-11-22T20:23:12.460Z,15.53
2018-11-22T20:24:14.249Z,15.52
2018-11-22T20:25:16.024Z,15.53
2018-11-22T20:26:17.824Z,15.52
2018-11-22T20:27:19.617Z,15.52
2018-11-22T20:28:21.429Z,15.51
2018-11-22T20:29:24.282Z,15.53
2018-11-22T20:30:28.587Z,15.51
2018-11-22T20:31:30.410Z,15.51
2018-11-22T20:32:38.690Z,15.50
2018-11-22T20:33:34.106Z,15.51
2018-11-22T20:34:37.320Z,15.52
2018-11-22T20:35:39.313Z,15.51
2018-11-22T20:36:41.125Z,15.51
2018-11-22T20:37:43.669Z,15.50
2018-11-22T20:38:45.449Z,15.49
2018-11-22T20:39:47.255Z,15.51
2018-11-22T20:40:49.046Z,15.50
2018-11-22T20:41:50.897Z,15.52
2018-11-22T20:42:52.690Z,15.51
2018-11-22T20:43:54.480Z,15.49
2018-11-22T20:44:56.257Z,15.51
2018-11-22T20:45:58.088Z,15.50
2018-11-22T20:46:59.895Z,15.51
2018-11-22T20:48:03.290Z,15.50
2018-11-22T20:49:05.055Z,15.52
2018-11-22T20:50:06.866Z,15.50
2018-11-22T20:51:08.661Z,15.51
2018-11-22T20:52:12.120Z,15.51
2018-11-22T20:53:13.896Z,15.50
2018-11-22T20:54:15.799Z,15.50
2018-11-22T20:55:21.083Z,15.50
2018-11-22T20:56:23.667Z,15.51
2018-11-22T20:57:25.470Z,15.51
2018-11-22T20:58:27.256Z,15.51
2018-11-22T20:59:29.039Z,15.50
2018-11-22T21:00:32.973Z,15.51
2018-11-22T21:01:34.757Z,15.51
2018-11-22T21:02:36.563Z,15.51
2018-11-22T21:03:38.334Z,15.49
2018-11-22T21:04:40.473Z,15.49
2018-11-22T21:05:42.272Z,15.49
2018-11-22T21:06:44.191Z,15.50
2018-11-22T21:07:46.247Z,15.50
2018-11-22T21:08:48.608Z,15.51
2018-11-22T21:09:49.825Z,15.51
2018-11-22T21:10:51.718Z,15.51
2018-11-22T21:11:53.553Z,15.50
2018-11-22T21:12:55.367Z,15.51
2018-11-22T21:13:57.174Z,15.50
2018-11-22T21:14:58.964Z,15.51
2018-11-22T21:16:00.738Z,15.49
2018-11-22T21:17:02.521Z,15.49
2018-11-22T21:18:05.728Z,15.48
2018-11-22T21:19:07.509Z,15.48
2018-11-22T21:20:10.033Z,15.48
2018-11-22T21:21:11.869Z,15.50
2018-11-22T21:22:13.663Z,15.49
2018-11-22T21:23:15.674Z,15.53
2018-11-22T21:24:17.539Z,15.49
2018-11-22T21:25:20.084Z,15.48
2018-11-22T21:26:23.418Z,15.50
2018-11-22T21:27:25.190Z,15.50
2018-11-22T21:28:26.981Z,15.47
2018-11-22T21:29:28.854Z,15.48
2018-11-22T21:30:33.691Z,15.49
2018-11-22T21:31:35.860Z,15.52
2018-11-22T21:32:37.645Z,15.52
2018-11-22T21:33:39.457Z,15.51
2018-11-22T21:34:41.229Z,15.55
2018-11-22T21:35:43.005Z,15.54
2018-11-22T21:36:46.447Z,15.52
2018-11-22T21:37:48.788Z,15.51
2018-11-22T21:38:50.887Z,15.49
2018-11-22T21:39:53.111Z,15.52
2018-11-22T21:40:54.920Z,15.50
2018-11-22T21:41:56.726Z,15.50
2018-11-22T21:42:58.546Z,15.49
2018-11-22T21:44:00.384Z,15.51
2018-11-22T21:45:02.156Z,15.48
2018-11-22T21:46:05.893Z,15.47
2018-11-22T21:47:07.712Z,15.47
2018-11-22T21:48:09.493Z,15.49
2018-11-22T21:49:11.289Z,15.49
2018-11-22T21:50:14.168Z,15.49
2018-11-22T21:51:15.945Z,15.49
2018-11-22T21:52:17.846Z,15.47
2018-11-22T21:53:19.648Z,15.47
2018-11-22T21:54:21.447Z,15.47
2018-11-22T21:55:26.339Z,15.48
2018-11-22T21:56:28.131Z,15.48
2018-11-22T21:57:29.909Z,15.47
2018-11-22T21:58:32.065Z,15.47
2018-11-22T21:59:33.949Z,15.48
2018-11-22T22:00:37.283Z,15.47
2018-11-22T22:01:39.058Z,15.48
2018-11-22T22:02:40.873Z,15.45
2018-11-22T22:03:42.658Z,15.46
2018-11-22T22:04:44.451Z,15.48
2018-11-22T22:05:46.223Z,15.47
2018-11-22T22:06:48.005Z,15.47
2018-11-22T22:07:49.797Z,15.48
2018-11-22T22:08:52.769Z,15.47
2018-11-22T22:09:55.180Z,15.48
2018-11-22T22:10:57.181Z,15.47
2018-11-22T22:11:59.141Z,15.47
2018-11-22T22:13:01.166Z,15.47
2018-11-22T22:14:02.946Z,15.47
2018-11-22T22:15:04.806Z,15.48
2018-11-22T22:16:06.739Z,15.48
2018-11-22T22:17:08.521Z,15.49
2018-11-22T22:18:10.335Z,15.50
2018-11-22T22:19:13.221Z,15.48
2018-11-22T22:20:16.604Z,15.48
2018-11-22T22:21:18.381Z,15.47
2018-11-22T22:22:21.443Z,15.47
2018-11-22T22:23:23.220Z,15.45
2018-11-22T22:24:24.995Z,15.45
2018-11-22T22:25:28.787Z,15.46
2018-11-22T22:26:30.568Z,15.49
2018-11-22T22:27:32.334Z,15.48
2018-11-22T22:28:34.109Z,15.47
2018-11-22T22:29:35.877Z,15.47
2018-11-22T22:30:37.677Z,15.45
2018-11-22T22:31:39.447Z,15.47
2018-11-22T22:32:41.654Z,15.48
2018-11-22T22:33:43.482Z,15.47
2018-11-22T22:34:45.252Z,15.46
2018-11-22T22:35:47.214Z,15.45
2018-11-22T22:36:48.973Z,15.44
2018-11-22T22:37:50.787Z,15.44
2018-11-22T22:38:52.562Z,15.44
2018-11-22T22:39:54.312Z,15.45
2018-11-22T22:40:56.111Z,15.44
2018-11-22T22:41:57.893Z,15.44
2018-11-22T22:42:59.957Z,15.43
2018-11-22T22:44:02.348Z,15.43
2018-11-22T22:45:07.147Z,15.43
2018-11-22T22:46:10.026Z,15.43
2018-11-22T22:47:11.798Z,15.43
2018-11-22T22:48:13.749Z,15.44
2018-11-22T22:49:15.530Z,15.43
2018-11-22T22:50:18.545Z,15.44
2018-11-22T22:51:20.425Z,15.42
2018-11-22T22:52:22.463Z,15.43
2018-11-22T22:53:25.405Z,15.42
2018-11-22T22:54:27.165Z,15.42
2018-11-22T22:55:29.444Z,15.42
2018-11-22T22:56:31.256Z,15.42
2018-11-22T22:57:33.034Z,15.43
2018-11-22T22:58:34.801Z,15.43
2018-11-22T22:59:36.575Z,15.43
2018-11-22T23:00:45.584Z,15.43
2018-11-22T23:01:47.529Z,15.43
2018-11-22T23:02:50.912Z,15.42
2018-11-22T23:03:52.681Z,15.43
2018-11-22T23:04:55.027Z,15.42
2018-11-22T23:05:56.792Z,15.41
2018-11-22T23:07:00.549Z,15.41
2018-11-22T23:08:02.319Z,15.43
2018-11-22T23:09:04.630Z,15.43
2018-11-22T23:10:06.426Z,15.43
2018-11-22T23:11:09.184Z,15.42
2018-11-22T23:12:10.989Z,15.41
2018-11-22T23:13:12.760Z,15.42
2018-11-22T23:14:14.538Z,15.42
2018-11-22T23:15:17.190Z,15.42
2018-11-22T23:16:19.617Z,15.42
2018-11-22T23:17:21.543Z,15.43
2018-11-22T23:18:23.324Z,15.43
2018-11-22T23:19:25.181Z,15.41
2018-11-22T23:20:28.454Z,15.41
2018-11-22T23:21:30.223Z,15.41
2018-11-22T23:22:32.023Z,15.43
2018-11-22T23:23:35.726Z,15.43
2018-11-22T23:24:37.503Z,15.42
2018-11-22T23:25:39.291Z,15.42
2018-11-22T23:26:41.942Z,15.42
2018-11-22T23:27:43.755Z,15.40
2018-11-22T23:28:45.542Z,15.41
2018-11-22T23:29:47.403Z,15.43
2018-11-22T23:32:00.422Z,15.43
2018-11-22T23:33:03.612Z,15.43
2018-11-22T23:34:05.419Z,15.43
2018-11-22T23:35:07.203Z,15.44
2018-11-22T23:36:09.621Z,15.41
2018-11-22T23:37:11.471Z,15.43
2018-11-22T23:38:13.265Z,15.44
2018-11-22T23:39:15.462Z,15.42
2018-11-22T23:40:18.471Z,15.42
2018-11-22T23:41:20.814Z,15.42
2018-11-22T23:42:22.608Z,15.43
2018-11-22T23:43:24.523Z,15.43
2018-11-22T23:44:27.819Z,15.42
2018-11-22T23:45:30.697Z,15.43
2018-11-22T23:46:32.478Z,15.46
2018-11-22T23:47:35.376Z,15.45
2018-11-22T23:48:37.173Z,15.43
2018-11-22T23:49:38.944Z,15.47
2018-11-22T23:50:41.515Z,15.51
2018-11-22T23:51:43.280Z,15.52
2018-11-22T23:52:46.150Z,15.51
2018-11-22T23:53:47.948Z,15.50
2018-11-22T23:54:49.723Z,15.48
2018-11-22T23:55:51.492Z,15.57
2018-11-22T23:56:53.259Z,15.62
2018-11-22T23:57:55.028Z,15.64
2018-11-22T23:58:56.847Z,15.62
2018-11-22T23:59:58.632Z,15.59
